createdAt,value
2018-07-15T00:01:58.168Z,67.62
2018-07-15T00:04:27.253Z,67.94
2018-07-15T00:06:56.407Z,68.21
2018-07-15T00:09:25.517Z,67.78
2018-07-15T00:11:54.674Z,67.40
2018-07-15T00:14:23.852Z,67.49
2018-07-15T00:16:52.928Z,67.99
2018-07-15T00:19:22.008Z,68.18
2018-07-15T00:21:51.112Z,67.97
2018-07-15T00:24:20.124Z,68.77
2018-07-15T00:26:49.246Z,69.52
2018-07-15T00:29:18.345Z,69.32
2018-07-15T00:31:47.402Z,70.00
2018-07-15T00:34:16.496Z,70.70
2018-07-15T00:36:45.526Z,70.30
2018-07-15T00:39:14.706Z,69.98
2018-07-15T00:41:43.974Z,69.80
2018-07-15T00:44:13.804Z,70.18
2018-07-15T00:46:43.096Z,69.79
2018-07-15T00:49:12.105Z,69.18
2018-07-15T00:51:41.402Z,69.24
2018-07-15T00:54:10.406Z,70.62
2018-07-15T00:56:39.392Z,70.62
2018-07-15T00:59:08.461Z,70.79
2018-07-15T01:01:37.526Z,71.16
2018-07-15T01:04:06.834Z,71.47
2018-07-15T01:06:35.815Z,71.04
2018-07-15T01:09:07.350Z,71.04
2018-07-15T01:11:36.466Z,71.05
2018-07-15T01:14:05.564Z,71.68
2018-07-15T01:16:34.983Z,71.71
2018-07-15T01:19:04.063Z,72.03
2018-07-15T01:21:33.086Z,72.12
2018-07-15T01:24:02.174Z,72.20
2018-07-15T01:26:31.516Z,72.68
2018-07-15T01:29:00.573Z,71.86
2018-07-15T01:31:29.611Z,71.51
2018-07-15T01:33:58.642Z,71.61
2018-07-15T01:36:27.691Z,72.29
2018-07-15T01:38:56.705Z,72.72
2018-07-15T01:41:25.767Z,73.26
2018-07-15T01:43:55.817Z,73.06
2018-07-15T01:46:24.869Z,73.23
2018-07-15T01:48:54.363Z,73.10
2018-07-15T01:51:23.408Z,72.62
2018-07-15T01:53:52.963Z,72.56
2018-07-15T01:56:22.024Z,72.66
2018-07-15T01:58:51.177Z,73.53
2018-07-15T02:01:20.309Z,72.19
2018-07-15T02:03:49.343Z,72.04
2018-07-15T02:06:18.399Z,72.93
2018-07-15T02:08:47.413Z,73.38
2018-07-15T02:11:16.529Z,73.59
2018-07-15T02:13:45.598Z,73.76
2018-07-15T02:16:14.691Z,74.00
2018-07-15T02:18:43.733Z,73.71
2018-07-15T02:21:12.785Z,73.25
2018-07-15T02:23:41.822Z,73.39
2018-07-15T02:26:10.828Z,74.24
2018-07-15T02:28:40.845Z,74.61
2018-07-15T02:31:09.941Z,74.73
2018-07-15T02:33:38.944Z,74.69
2018-07-15T02:36:07.997Z,74.66
2018-07-15T02:38:36.992Z,74.61
2018-07-15T02:41:06.159Z,74.72
2018-07-15T02:43:35.207Z,74.64
2018-07-15T02:46:04.321Z,74.91
2018-07-15T02:48:34.048Z,75.08
2018-07-15T02:51:03.089Z,75.01
2018-07-15T02:53:32.191Z,74.96
2018-07-15T02:56:04.391Z,75.28
2018-07-15T02:58:33.458Z,75.11
2018-07-15T03:01:02.500Z,75.27
2018-07-15T03:03:31.539Z,75.95
2018-07-15T03:06:00.580Z,76.13
2018-07-15T03:08:29.631Z,76.15
2018-07-15T03:10:58.718Z,76.51
2018-07-15T03:13:27.865Z,76.42
2018-07-15T03:15:56.918Z,76.28
2018-07-15T03:18:26.056Z,76.46
2018-07-15T03:20:55.154Z,76.25
2018-07-15T03:23:24.217Z,76.58
2018-07-15T03:25:53.408Z,76.31
2018-07-15T03:28:22.532Z,76.26
2018-07-15T03:30:51.598Z,76.13
2018-07-15T03:33:21.098Z,76.50
2018-07-15T03:35:50.135Z,76.07
2018-07-15T03:38:19.180Z,75.93
2018-07-15T03:40:48.353Z,75.39
2018-07-15T03:43:17.540Z,75.55
2018-07-15T03:45:46.650Z,75.14
2018-07-15T03:48:15.706Z,74.86
2018-07-15T03:50:44.720Z,73.72
2018-07-15T03:53:14.375Z,73.22
2018-07-15T03:55:43.438Z,73.26
2018-07-15T03:58:12.500Z,72.86
2018-07-15T04:00:41.768Z,73.07
2018-07-15T04:03:10.767Z,72.88
2018-07-15T04:05:46.571Z,72.81
2018-07-15T04:08:15.710Z,72.03
2018-07-15T04:10:44.854Z,71.82
2018-07-15T04:13:13.966Z,71.46
2018-07-15T04:15:43.127Z,70.05
2018-07-15T04:18:12.159Z,69.90
2018-07-15T04:20:41.342Z,68.19
2018-07-15T04:23:10.554Z,68.23
2018-07-15T04:25:40.226Z,67.93
2018-07-15T04:28:09.337Z,67.91
2018-07-15T04:30:38.480Z,66.82
2018-07-15T04:33:08.166Z,65.69
2018-07-15T04:35:37.202Z,65.43
2018-07-15T04:38:06.293Z,64.50
2018-07-15T04:40:35.351Z,64.63
2018-07-15T04:43:05.170Z,63.92
2018-07-15T04:45:34.216Z,64.25
2018-07-15T04:48:03.316Z,63.95
2018-07-15T04:50:32.367Z,64.39
2018-07-15T04:53:01.438Z,64.09
2018-07-15T04:55:30.427Z,63.08
2018-07-15T04:57:59.456Z,62.37
2018-07-15T05:00:28.504Z,61.30
2018-07-15T05:02:57.611Z,60.54
2018-07-15T05:05:26.640Z,60.47
2018-07-15T05:07:55.657Z,59.96
2018-07-15T05:10:24.708Z,60.30
2018-07-15T05:12:53.821Z,60.44
2018-07-15T05:15:22.855Z,60.67
2018-07-15T05:17:51.868Z,61.43
2018-07-15T05:20:20.975Z,61.09
2018-07-15T05:22:50.099Z,60.78
2018-07-15T05:25:19.228Z,60.42
2018-07-15T05:27:48.309Z,59.84
2018-07-15T05:30:17.291Z,60.47
2018-07-15T05:32:46.331Z,60.24
2018-07-15T05:35:15.435Z,59.56
2018-07-15T05:37:44.501Z,59.88
2018-07-15T05:40:13.557Z,59.69
2018-07-15T05:42:42.541Z,59.33
2018-07-15T05:45:11.535Z,59.40
2018-07-15T05:47:40.623Z,59.59
2018-07-15T05:50:10.467Z,59.75
2018-07-15T05:52:39.493Z,59.71
2018-07-15T05:55:12.529Z,59.83
2018-07-15T05:57:41.552Z,60.27
2018-07-15T06:00:10.577Z,59.83
2018-07-15T06:02:39.692Z,59.71
2018-07-15T06:05:09.123Z,58.24
2018-07-15T06:07:38.133Z,58.64
2018-07-15T06:10:07.314Z,58.25
2018-07-15T06:12:36.439Z,58.31
2018-07-15T06:15:05.554Z,57.96
2018-07-15T06:17:34.754Z,58.15
2018-07-15T06:20:04.054Z,58.02
2018-07-15T06:22:33.463Z,57.56
2018-07-15T06:25:02.546Z,58.04
2018-07-15T06:27:31.738Z,57.33
2018-07-15T06:30:01.232Z,57.25
2018-07-15T06:32:30.382Z,56.65
2018-07-15T06:34:59.611Z,56.40
2018-07-15T06:37:28.784Z,56.57
2018-07-15T06:39:58.215Z,56.44
2018-07-15T06:42:27.273Z,56.70
2018-07-15T06:44:56.324Z,56.50
2018-07-15T06:47:25.625Z,57.29
2018-07-15T06:49:54.637Z,58.21
2018-07-15T06:52:24.473Z,57.58
2018-07-15T06:54:53.527Z,57.08
2018-07-15T06:57:22.584Z,56.70
2018-07-15T06:59:51.785Z,57.08
2018-07-15T07:02:21.099Z,56.74
2018-07-15T07:04:50.402Z,55.87
2018-07-15T07:07:19.658Z,55.48
2018-07-15T07:09:48.732Z,54.64
2018-07-15T07:12:17.772Z,53.96
2018-07-15T07:14:46.818Z,53.30
2018-07-15T07:17:15.919Z,53.56
2018-07-15T07:19:45.090Z,53.43
2018-07-15T07:22:14.194Z,52.82
2018-07-15T07:24:43.253Z,51.95
2018-07-15T07:27:12.563Z,51.02
2018-07-15T07:29:41.635Z,51.66
2018-07-15T07:32:10.699Z,51.99
2018-07-15T07:34:39.766Z,51.74
2018-07-15T07:37:08.849Z,50.18
2018-07-15T07:39:37.966Z,50.77
2018-07-15T07:42:07.024Z,50.84
2018-07-15T07:44:36.041Z,50.81
2018-07-15T07:47:05.478Z,51.15
2018-07-15T07:49:34.378Z,51.24
2018-07-15T07:52:03.559Z,50.66
2018-07-15T07:54:32.562Z,50.74
2018-07-15T07:57:01.591Z,50.19
2018-07-15T07:59:30.665Z,50.20
2018-07-15T08:01:59.723Z,49.95
2018-07-15T08:04:28.781Z,49.20
2018-07-15T08:06:57.904Z,49.89
2018-07-15T08:09:27.070Z,50.50
2018-07-15T08:11:56.273Z,50.95
2018-07-15T08:14:25.424Z,49.64
2018-07-15T08:16:54.787Z,49.46
2018-07-15T08:19:23.984Z,49.12
2018-07-15T08:21:53.158Z,49.36
2018-07-15T08:24:22.290Z,48.42
2018-07-15T08:26:51.313Z,48.74
2018-07-15T08:29:20.342Z,48.40
2018-07-15T08:31:49.647Z,47.07
2018-07-15T08:34:18.665Z,47.85
2018-07-15T08:36:47.666Z,46.74
2018-07-15T08:39:17.369Z,46.82
2018-07-15T08:41:46.655Z,45.92
2018-07-15T08:44:15.729Z,46.55
2018-07-15T08:46:44.797Z,47.34
2018-07-15T08:49:14.017Z,48.35
2018-07-15T08:51:43.137Z,49.06
2018-07-15T08:54:12.264Z,48.48
2018-07-15T08:56:41.452Z,48.05
2018-07-15T08:59:10.502Z,47.31
2018-07-15T09:01:40.446Z,46.87
2018-07-15T09:04:09.573Z,47.13
2018-07-15T09:06:38.688Z,47.90
2018-07-15T09:18:57.763Z,47.90
2018-07-15T09:21:26.781Z,47.55
2018-07-15T09:23:55.877Z,46.78
2018-07-15T09:26:25.041Z,46.98
2018-07-15T09:28:54.129Z,46.35
2018-07-15T09:31:23.233Z,46.07
2018-07-15T09:33:52.391Z,46.23
2018-07-15T09:36:21.741Z,46.08
2018-07-15T09:38:51.029Z,46.26
2018-07-15T09:41:20.984Z,46.64
2018-07-15T09:43:50.318Z,47.14
2018-07-15T09:46:19.548Z,47.09
2018-07-15T09:48:49.086Z,46.32
2018-07-15T09:51:18.331Z,46.71
2018-07-15T09:53:47.609Z,45.60
2018-07-15T09:56:16.737Z,45.06
2018-07-15T09:58:45.985Z,45.68
2018-07-15T10:01:15.242Z,45.67
2018-07-15T10:03:44.373Z,45.81
2018-07-15T10:06:13.396Z,45.41
2018-07-15T10:08:42.388Z,44.62
2018-07-15T10:11:11.388Z,44.97
2018-07-15T10:13:41.331Z,44.44
2018-07-15T10:16:10.446Z,45.80
2018-07-15T10:18:39.575Z,45.01
2018-07-15T10:21:08.613Z,45.91
2018-07-15T10:23:38.084Z,46.11
2018-07-15T10:26:07.152Z,44.73
2018-07-15T10:28:36.162Z,45.21
2018-07-15T10:31:05.321Z,44.52
2018-07-15T10:33:34.419Z,44.74
2018-07-15T10:36:03.546Z,45.16
2018-07-15T10:38:33.295Z,43.69
2018-07-15T10:41:02.956Z,44.85
2018-07-15T10:43:32.158Z,45.65
2018-07-15T10:46:01.312Z,45.28
2018-07-15T10:48:30.610Z,45.49
2018-07-15T10:50:59.658Z,45.11
2018-07-15T10:53:28.721Z,45.55
2018-07-15T10:55:57.775Z,45.57
2018-07-15T10:58:26.930Z,44.72
2018-07-15T11:00:55.957Z,45.00
2018-07-15T11:03:25.038Z,44.40
2018-07-15T11:05:54.124Z,45.32
2018-07-15T11:08:23.237Z,46.47
2018-07-15T11:10:52.817Z,45.95
2018-07-15T11:13:22.314Z,46.42
2018-07-15T11:15:51.436Z,44.61
2018-07-15T11:18:20.481Z,44.28
2018-07-15T11:20:49.860Z,43.57
2018-07-15T11:23:19.018Z,44.03
2018-07-15T11:25:48.044Z,43.68
2018-07-15T11:28:17.223Z,45.00
2018-07-15T11:30:46.338Z,43.58
2018-07-15T11:33:15.447Z,43.25
2018-07-15T11:35:44.524Z,43.44
2018-07-15T11:38:13.944Z,42.21
2018-07-15T11:40:43.160Z,42.44
2018-07-15T11:43:12.284Z,42.21
2018-07-15T11:45:42.072Z,42.49
2018-07-15T11:48:11.376Z,42.23
2018-07-15T11:50:40.417Z,41.61
2018-07-15T11:53:09.466Z,41.89
2018-07-15T11:55:38.767Z,42.66
2018-07-15T11:58:07.841Z,42.13
2018-07-15T12:00:37.034Z,41.94
2018-07-15T12:03:06.100Z,42.83
2018-07-15T12:05:35.230Z,43.01
2018-07-15T12:08:04.280Z,43.73
2018-07-15T12:10:33.428Z,43.35
2018-07-15T12:13:02.478Z,43.31
2018-07-15T12:15:31.531Z,43.74
2018-07-15T12:18:00.659Z,43.51
2018-07-15T12:20:29.763Z,43.66
2018-07-15T12:22:58.817Z,42.52
2018-07-15T12:25:27.801Z,42.96
2018-07-15T12:27:56.860Z,43.10
2018-07-15T12:30:25.892Z,42.85
2018-07-15T12:32:55.060Z,43.63
2018-07-15T12:35:24.131Z,41.99
2018-07-15T12:37:53.265Z,41.69
2018-07-15T12:40:22.358Z,40.49
2018-07-15T12:42:51.640Z,41.01
2018-07-15T12:45:20.796Z,42.16
2018-07-15T12:47:49.837Z,43.19
2018-07-15T12:50:18.943Z,43.97
2018-07-15T12:52:47.973Z,45.49
2018-07-15T12:55:17.155Z,44.54
2018-07-15T12:57:46.493Z,44.42
2018-07-15T13:00:15.678Z,43.40
2018-07-15T13:02:44.702Z,44.23
2018-07-15T13:05:13.740Z,42.85
2018-07-15T13:07:43.176Z,43.36
2018-07-15T13:10:12.198Z,42.87
2018-07-15T13:12:41.296Z,42.26
2018-07-15T13:15:10.460Z,44.29
2018-07-15T13:17:39.524Z,42.68
2018-07-15T13:20:09.574Z,41.50
2018-07-15T13:22:39.039Z,42.26
2018-07-15T13:25:08.325Z,41.32
2018-07-15T13:27:38.041Z,40.81
2018-07-15T13:30:07.170Z,41.01
2018-07-15T13:32:36.411Z,41.56
2018-07-15T13:35:05.803Z,42.78
2018-07-15T13:37:35.346Z,43.27
2018-07-15T13:40:04.407Z,42.37
2018-07-15T13:42:33.455Z,42.22
2018-07-15T13:45:02.483Z,41.84
2018-07-15T13:47:31.594Z,42.05
2018-07-15T13:50:00.640Z,41.73
2018-07-15T13:52:33.289Z,42.29
2018-07-15T13:55:03.041Z,41.46
2018-07-15T13:57:32.145Z,42.54
2018-07-15T14:00:01.230Z,40.93
2018-07-15T14:02:30.882Z,41.16
2018-07-15T14:05:00.002Z,40.61
2018-07-15T14:07:29.205Z,40.96
2018-07-15T14:09:58.270Z,40.81
2018-07-15T14:12:28.483Z,39.81
2018-07-15T14:14:57.638Z,39.78
2018-07-15T14:17:26.814Z,39.64
2018-07-15T14:19:55.861Z,39.77
2018-07-15T14:22:25.034Z,38.95
2018-07-15T14:24:54.104Z,39.97
2018-07-15T14:27:23.189Z,40.58
2018-07-15T14:29:52.355Z,39.91
2018-07-15T14:32:21.460Z,39.97
2018-07-15T14:34:50.600Z,39.78
2018-07-15T14:37:19.868Z,40.49
2018-07-15T14:39:48.886Z,40.03
2018-07-15T14:42:18.477Z,39.13
2018-07-15T14:44:47.470Z,39.94
2018-07-15T14:47:16.602Z,40.79
2018-07-15T14:49:45.746Z,40.37
2018-07-15T14:52:15.060Z,39.74
2018-07-15T14:54:44.246Z,39.46
2018-07-15T14:57:13.294Z,38.49
2018-07-15T14:59:42.310Z,38.17
2018-07-15T15:02:11.352Z,38.86
2018-07-15T15:04:40.447Z,39.26
2018-07-15T15:07:09.635Z,39.27
2018-07-15T15:09:38.706Z,38.95
2018-07-15T15:12:08.073Z,39.18
2018-07-15T15:14:37.127Z,39.23
2018-07-15T15:17:07.426Z,38.51
2018-07-15T15:19:36.524Z,38.80
2018-07-15T15:22:05.571Z,38.62
2018-07-15T15:24:35.019Z,38.02
2018-07-15T15:27:04.124Z,37.98
2018-07-15T15:29:33.265Z,36.86
2018-07-15T15:32:02.643Z,37.09
2018-07-15T15:34:31.921Z,36.55
2018-07-15T15:37:01.021Z,36.50
2018-07-15T15:39:30.282Z,37.00
2018-07-15T15:41:59.567Z,35.33
2018-07-15T15:44:28.628Z,35.61
2018-07-15T15:46:57.724Z,35.92
2018-07-15T15:49:26.814Z,35.81
2018-07-15T15:51:56.781Z,35.34
2018-07-15T15:54:33.249Z,33.82
2018-07-15T15:57:02.420Z,32.02
2018-07-15T15:59:31.458Z,29.62
2018-07-15T16:02:00.850Z,29.29
2018-07-15T16:04:30.047Z,27.56
2018-07-15T16:07:02.261Z,26.47
2018-07-15T16:09:31.240Z,26.17
2018-07-15T16:12:00.573Z,24.97
2018-07-15T16:14:29.744Z,23.70
2018-07-15T16:16:59.009Z,23.53
2018-07-15T16:19:31.257Z,23.09
2018-07-15T16:22:01.052Z,24.48
2018-07-15T16:24:30.168Z,25.09
2018-07-15T16:26:59.326Z,24.06
2018-07-15T16:29:28.428Z,22.70
2018-07-15T16:31:57.663Z,26.10
2018-07-15T16:34:27.013Z,25.36
2018-07-15T16:36:56.425Z,26.22
2018-07-15T16:39:25.465Z,27.26
2018-07-15T16:41:58.454Z,29.55
2018-07-15T16:44:34.384Z,30.46
2018-07-15T16:47:03.677Z,32.89
2018-07-15T16:49:32.809Z,33.72
2018-07-15T16:52:01.882Z,32.70
2018-07-15T16:54:31.247Z,30.60
2018-07-15T16:57:00.361Z,28.09
2018-07-15T16:59:29.408Z,28.00
2018-07-15T17:01:58.532Z,27.19
2018-07-15T17:04:27.641Z,26.56
2018-07-15T17:06:56.721Z,28.65
2018-07-15T17:09:25.825Z,30.05
2018-07-15T17:11:54.920Z,32.87
2018-07-15T17:14:24.018Z,34.22
2018-07-15T17:16:53.277Z,35.69
2018-07-15T17:19:22.501Z,36.05
2018-07-15T17:21:51.630Z,36.00
2018-07-15T17:24:20.938Z,36.28
2018-07-15T17:26:49.972Z,37.23
2018-07-15T17:29:19.276Z,37.72
2018-07-15T17:31:48.396Z,38.08
2018-07-15T17:34:17.572Z,38.84
2018-07-15T17:36:46.900Z,39.73
2018-07-15T17:39:16.054Z,38.74
2018-07-15T17:41:45.272Z,39.96
2018-07-15T17:44:14.854Z,40.43
2018-07-15T17:46:44.380Z,39.72
2018-07-15T17:49:13.833Z,40.02
2018-07-15T17:51:43.477Z,40.81
2018-07-15T17:54:12.672Z,40.17
2018-07-15T17:56:41.933Z,40.38
2018-07-15T17:59:12.062Z,41.01
2018-07-15T18:01:41.150Z,40.98
2018-07-15T18:04:10.472Z,41.75
2018-07-15T18:06:39.582Z,41.07
2018-07-15T18:09:08.724Z,41.62
2018-07-15T18:11:37.826Z,41.58
2018-07-15T18:14:07.096Z,41.32
2018-07-15T18:16:36.156Z,40.66
2018-07-15T18:19:05.470Z,41.19
2018-07-15T18:21:34.553Z,41.77
2018-07-15T18:24:03.753Z,42.26
2018-07-15T18:26:32.907Z,42.83
2018-07-15T18:29:03.439Z,41.65
2018-07-15T18:31:33.071Z,42.36
2018-07-15T18:34:02.324Z,42.00
2018-07-15T18:36:31.376Z,42.79
2018-07-15T18:39:00.612Z,42.63
2018-07-15T18:41:29.782Z,43.20
2018-07-15T18:43:58.948Z,43.50
2018-07-15T18:46:28.010Z,42.80
2018-07-15T18:48:57.069Z,43.24
2018-07-15T18:51:26.226Z,43.78
2018-07-15T18:53:55.308Z,43.63
2018-07-15T18:56:24.423Z,43.81
2018-07-15T18:58:53.522Z,44.16
2018-07-15T19:01:22.668Z,44.03
2018-07-15T19:03:51.919Z,44.49
2018-07-15T19:06:21.035Z,44.60
2018-07-15T19:08:50.262Z,45.04
2018-07-15T19:11:19.346Z,45.67
2018-07-15T19:13:48.507Z,45.45
2018-07-15T19:16:17.594Z,45.55
2018-07-15T19:18:46.775Z,46.13
2018-07-15T19:21:15.881Z,46.33
2018-07-15T19:23:45.912Z,46.86
2018-07-15T19:26:14.964Z,46.96
2018-07-15T19:28:44.123Z,46.65
2018-07-15T19:31:13.189Z,47.10
2018-07-15T19:33:42.739Z,46.86
2018-07-15T19:36:12.367Z,47.61
2018-07-15T19:38:41.464Z,47.53
2018-07-15T19:41:11.017Z,47.70
2018-07-15T19:43:40.356Z,47.40
2018-07-15T19:46:09.460Z,47.89
2018-07-15T19:48:38.662Z,48.09
2018-07-15T19:51:08.032Z,48.49
2018-07-15T19:53:37.150Z,48.42
2018-07-15T19:56:06.487Z,49.04
2018-07-15T19:58:35.631Z,49.62
2018-07-15T20:01:04.882Z,49.82
2018-07-15T20:03:33.945Z,50.33
2018-07-15T20:06:03.047Z,50.14
2018-07-15T20:08:32.235Z,50.36
2018-07-15T20:11:01.336Z,50.64
2018-07-15T20:13:31.540Z,51.15
2018-07-15T20:16:00.797Z,51.93
2018-07-15T20:18:29.876Z,51.92
2018-07-15T20:20:59.090Z,51.83
2018-07-15T20:23:28.522Z,52.55
2018-07-15T20:25:57.544Z,52.47
2018-07-15T20:28:26.638Z,52.46
2018-07-15T20:30:55.820Z,52.63
2018-07-15T20:33:25.003Z,52.68
2018-07-15T20:35:54.152Z,53.96
2018-07-15T20:38:23.335Z,53.66
2018-07-15T20:40:52.448Z,54.17
2018-07-15T20:43:21.538Z,54.72
2018-07-15T20:45:50.619Z,54.86
2018-07-15T20:48:19.943Z,55.80
2018-07-15T20:50:49.498Z,55.95
2018-07-15T20:53:18.574Z,56.00
2018-07-15T20:55:47.633Z,55.70
2018-07-15T20:58:16.685Z,56.24
2018-07-15T21:00:45.913Z,56.37
2018-07-15T21:03:15.059Z,56.53
2018-07-15T21:05:44.201Z,56.68
2018-07-15T21:08:13.272Z,56.56
2018-07-15T21:23:43.314Z,59.84
2018-07-15T21:26:12.630Z,60.76
2018-07-15T21:28:41.847Z,58.81
2018-07-15T21:31:11.027Z,59.64
2018-07-15T21:33:40.089Z,59.30
2018-07-15T21:36:09.172Z,59.83
2018-07-15T21:38:38.242Z,59.79
2018-07-15T21:41:07.502Z,60.32
2018-07-15T21:43:36.842Z,60.81
2018-07-15T21:46:06.028Z,60.48
2018-07-15T21:48:35.144Z,60.86
2018-07-15T21:51:04.836Z,61.71
2018-07-15T21:53:34.073Z,61.53
2018-07-15T21:56:03.541Z,62.02
2018-07-15T21:58:32.677Z,61.74
2018-07-15T22:01:01.750Z,61.88
2018-07-15T22:03:30.845Z,62.40
2018-07-15T22:05:59.949Z,62.93
2018-07-15T22:08:45.123Z,62.89
2018-07-15T22:11:14.436Z,63.18
2018-07-15T22:13:43.567Z,63.63
2018-07-15T22:16:12.718Z,64.23
2018-07-15T22:18:41.793Z,64.55
2018-07-15T22:21:11.097Z,65.21
2018-07-15T22:23:40.194Z,65.25
2018-07-15T22:26:09.310Z,65.63
2018-07-15T22:28:38.526Z,65.92
2018-07-15T22:31:07.613Z,66.41
2018-07-15T22:33:36.661Z,67.50
2018-07-15T22:36:05.839Z,67.31
2018-07-15T22:38:34.997Z,66.88
2018-07-15T22:41:04.013Z,67.00
2018-07-15T22:43:33.095Z,67.89
2018-07-15T22:46:02.169Z,67.15
2018-07-15T22:48:31.247Z,67.77
2018-07-15T22:51:00.365Z,67.97
2018-07-15T22:53:30.065Z,68.40
2018-07-15T22:55:59.149Z,68.75
2018-07-15T22:58:28.245Z,69.27
2018-07-15T23:00:57.337Z,69.65
2018-07-15T23:03:26.437Z,69.35
2018-07-15T23:06:07.126Z,69.80
2018-07-15T23:08:36.315Z,69.85
2018-07-15T23:11:05.383Z,70.30
2018-07-15T23:13:34.401Z,70.79
2018-07-15T23:16:03.633Z,70.88
2018-07-15T23:18:32.696Z,71.57
2018-07-15T23:21:02.042Z,72.35
2018-07-15T23:23:31.108Z,72.59
2018-07-15T23:26:00.177Z,72.47
2018-07-15T23:28:29.274Z,72.56
2018-07-15T23:30:59.131Z,73.58
2018-07-15T23:33:28.109Z,73.84
2018-07-15T23:35:57.176Z,73.74
2018-07-15T23:38:26.237Z,74.51
2018-07-15T23:40:56.046Z,74.29
2018-07-15T23:43:25.111Z,75.18
2018-07-15T23:45:54.197Z,75.91
2018-07-15T23:48:23.335Z,75.57
2018-07-15T23:50:52.395Z,76.07
2018-07-15T23:53:21.466Z,75.75
2018-07-15T23:55:50.486Z,75.87
2018-07-15T23:58:19.576Z,75.64
